sensor_id;sensor_type;location;lat;lon;timestamp;P1;durP1;ratioP1;P2;durP2;ratioP2
38427;SDS011;24211;49.980;19.776;2024-02-04T00:00:57;5.40;;;2.47;;
38427;SDS011;24211;49.980;19.776;2024-02-04T00:03:47;5.65;;;2.63;;
38427;SDS011;24211;49.980;19.776;2024-02-04T00:06:14;5.30;;;2.65;;
38427;SDS011;24211;49.980;19.776;2024-02-04T00:08:42;5.30;;;2.40;;
38427;SDS011;24211;49.980;19.776;2024-02-04T00:11:09;5.35;;;2.38;;
38427;SDS011;24211;49.980;19.776;2024-02-04T00:13:38;5.38;;;2.22;;
38427;SDS011;24211;49.980;19.776;2024-02-04T00:16:05;5.68;;;2.70;;
38427;SDS011;24211;49.980;19.776;2024-02-04T00:18:59;5.32;;;2.60;;
38427;SDS011;24211;49.980;19.776;2024-02-04T00:21:26;4.78;;;2.53;;
38427;SDS011;24211;49.980;19.776;2024-02-04T00:23:55;4.93;;;2.58;;
38427;SDS011;24211;49.980;19.776;2024-02-04T00:26:22;4.43;;;2.20;;
38427;SDS011;24211;49.980;19.776;2024-02-04T00:28:53;5.53;;;2.50;;
38427;SDS011;24211;49.980;19.776;2024-02-04T00:31:20;5.35;;;2.33;;
38427;SDS011;24211;49.980;19.776;2024-02-04T00:33:55;5.28;;;2.22;;
38427;SDS011;24211;49.980;19.776;2024-02-04T00:36:40;4.20;;;2.10;;
38427;SDS011;24211;49.980;19.776;2024-02-04T00:39:18;5.45;;;2.33;;
38427;SDS011;24211;49.980;19.776;2024-02-04T00:41:47;5.70;;;2.50;;
38427;SDS011;24211;49.980;19.776;2024-02-04T00:44:14;5.57;;;2.30;;
38427;SDS011;24211;49.980;19.776;2024-02-04T00:46:41;4.07;;;2.33;;
38427;SDS011;24211;49.980;19.776;2024-02-04T00:49:10;4.80;;;2.25;;
38427;SDS011;24211;49.980;19.776;2024-02-04T00:51:40;4.60;;;2.20;;
38427;SDS011;24211;49.980;19.776;2024-02-04T00:54:08;4.30;;;2.28;;
38427;SDS011;24211;49.980;19.776;2024-02-04T00:56:36;7.45;;;2.50;;
38427;SDS011;24211;49.980;19.776;2024-02-04T00:59:19;4.57;;;2.28;;
38427;SDS011;24211;49.980;19.776;2024-02-04T01:01:51;4.00;;;2.30;;
38427;SDS011;24211;49.980;19.776;2024-02-04T01:04:39;6.20;;;2.50;;
38427;SDS011;24211;49.980;19.776;2024-02-04T01:07:07;4.95;;;2.20;;
38427;SDS011;24211;49.980;19.776;2024-02-04T01:09:35;4.32;;;2.40;;
38427;SDS011;24211;49.980;19.776;2024-02-04T01:12:03;4.50;;;2.30;;
38427;SDS011;24211;49.980;19.776;2024-02-04T01:14:50;5.70;;;2.13;;
38427;SDS011;24211;49.980;19.776;2024-02-04T01:17:18;3.83;;;2.00;;
38427;SDS011;24211;49.980;19.776;2024-02-04T01:19:45;4.78;;;2.05;;
38427;SDS011;24211;49.980;19.776;2024-02-04T01:22:14;4.85;;;2.35;;
38427;SDS011;24211;49.980;19.776;2024-02-04T01:24:52;5.90;;;2.45;;
38427;SDS011;24211;49.980;19.776;2024-02-04T01:27:20;3.97;;;2.10;;
38427;SDS011;24211;49.980;19.776;2024-02-04T01:29:50;5.25;;;2.50;;
38427;SDS011;24211;49.980;19.776;2024-02-04T01:32:20;4.25;;;2.40;;
38427;SDS011;24211;49.980;19.776;2024-02-04T01:34:48;5.15;;;2.42;;
38427;SDS011;24211;49.980;19.776;2024-02-04T01:37:15;4.65;;;2.45;;
38427;SDS011;24211;49.980;19.776;2024-02-04T01:39:47;4.75;;;2.30;;
38427;SDS011;24211;49.980;19.776;2024-02-04T01:43:01;4.80;;;2.22;;
38427;SDS011;24211;49.980;19.776;2024-02-04T01:45:32;4.43;;;2.40;;
38427;SDS011;24211;49.980;19.776;2024-02-04T01:48:03;4.25;;;2.50;;
38427;SDS011;24211;49.980;19.776;2024-02-04T01:50:35;5.50;;;2.33;;
38427;SDS011;24211;49.980;19.776;2024-02-04T01:53:04;4.10;;;2.10;;
38427;SDS011;24211;49.980;19.776;2024-02-04T01:55:32;5.00;;;2.45;;
38427;SDS011;24211;49.980;19.776;2024-02-04T01:58:01;4.50;;;2.50;;
38427;SDS011;24211;49.980;19.776;2024-02-04T02:00:30;4.90;;;2.42;;
38427;SDS011;24211;49.980;19.776;2024-02-04T02:02:59;6.15;;;2.90;;
38427;SDS011;24211;49.980;19.776;2024-02-04T02:05:28;4.47;;;2.80;;
38427;SDS011;24211;49.980;19.776;2024-02-04T02:08:01;6.53;;;3.15;;
38427;SDS011;24211;49.980;19.776;2024-02-04T02:10:41;4.60;;;2.63;;
38427;SDS011;24211;49.980;19.776;2024-02-04T02:13:23;4.90;;;2.63;;
38427;SDS011;24211;49.980;19.776;2024-02-04T02:19:03;5.25;;;2.80;;
38427;SDS011;24211;49.980;19.776;2024-02-04T02:25:06;4.60;;;2.33;;
38427;SDS011;24211;49.980;19.776;2024-02-04T02:27:35;3.63;;;1.90;;
38427;SDS011;24211;49.980;19.776;2024-02-04T02:30:24;3.88;;;1.75;;
38427;SDS011;24211;49.980;19.776;2024-02-04T02:33:05;4.63;;;1.95;;
38427;SDS011;24211;49.980;19.776;2024-02-04T02:35:39;3.95;;;1.90;;
38427;SDS011;24211;49.980;19.776;2024-02-04T02:38:43;3.50;;;1.80;;
38427;SDS011;24211;49.980;19.776;2024-02-04T02:41:46;3.30;;;1.90;;
38427;SDS011;24211;49.980;19.776;2024-02-04T02:44:20;4.05;;;2.40;;
38427;SDS011;24211;49.980;19.776;2024-02-04T02:46:49;5.38;;;2.28;;
38427;SDS011;24211;49.980;19.776;2024-02-04T02:49:53;4.93;;;2.40;;
38427;SDS011;24211;49.980;19.776;2024-02-04T02:52:22;4.28;;;2.20;;
38427;SDS011;24211;49.980;19.776;2024-02-04T02:55:09;4.85;;;2.35;;
38427;SDS011;24211;49.980;19.776;2024-02-04T02:57:37;4.70;;;2.42;;
38427;SDS011;24211;49.980;19.776;2024-02-04T03:00:04;4.15;;;2.20;;
38427;SDS011;24211;49.980;19.776;2024-02-04T03:02:33;3.95;;;2.17;;
38427;SDS011;24211;49.980;19.776;2024-02-04T03:05:01;5.63;;;2.50;;
38427;SDS011;24211;49.980;19.776;2024-02-04T03:07:32;3.65;;;1.63;;
38427;SDS011;24211;49.980;19.776;2024-02-04T03:09:59;3.28;;;1.83;;
38427;SDS011;24211;49.980;19.776;2024-02-04T03:15:28;2.20;;;1.20;;
38427;SDS011;24211;49.980;19.776;2024-02-04T03:17:56;2.50;;;1.20;;
38427;SDS011;24211;49.980;19.776;2024-02-04T03:20:23;3.03;;;1.30;;
38427;SDS011;24211;49.980;19.776;2024-02-04T03:23:09;2.63;;;0.82;;
38427;SDS011;24211;49.980;19.776;2024-02-04T03:31:53;3.30;;;1.13;;
38427;SDS011;24211;49.980;19.776;2024-02-04T03:34:27;3.38;;;1.20;;
38427;SDS011;24211;49.980;19.776;2024-02-04T03:37:25;2.42;;;1.20;;
38427;SDS011;24211;49.980;19.776;2024-02-04T03:39:59;2.92;;;1.20;;
38427;SDS011;24211;49.980;19.776;2024-02-04T03:42:27;2.15;;;1.00;;
38427;SDS011;24211;49.980;19.776;2024-02-04T03:44:55;2.80;;;1.10;;
38427;SDS011;24211;49.980;19.776;2024-02-04T03:47:23;2.72;;;1.13;;
38427;SDS011;24211;49.980;19.776;2024-02-04T03:49:51;4.93;;;1.40;;
38427;SDS011;24211;49.980;19.776;2024-02-04T03:52:32;3.33;;;1.00;;
38427;SDS011;24211;49.980;19.776;2024-02-04T03:54:59;2.63;;;1.13;;
38427;SDS011;24211;49.980;19.776;2024-02-04T03:57:29;2.03;;;1.13;;
38427;SDS011;24211;49.980;19.776;2024-02-04T03:59:57;3.80;;;1.48;;
38427;SDS011;24211;49.980;19.776;2024-02-04T04:02:24;4.15;;;1.23;;
38427;SDS011;24211;49.980;19.776;2024-02-04T04:04:52;2.65;;;1.00;;
38427;SDS011;24211;49.980;19.776;2024-02-04T04:07:22;2.35;;;1.10;;
38427;SDS011;24211;49.980;19.776;2024-02-04T04:09:58;2.47;;;1.00;;
38427;SDS011;24211;49.980;19.776;2024-02-04T04:12:59;2.35;;;0.80;;
38427;SDS011;24211;49.980;19.776;2024-02-04T04:15:27;2.03;;;1.00;;
38427;SDS011;24211;49.980;19.776;2024-02-04T04:17:57;2.45;;;1.00;;
38427;SDS011;24211;49.980;19.776;2024-02-04T04:20:29;3.47;;;1.42;;
38427;SDS011;24211;49.980;19.776;2024-02-04T04:23:04;3.17;;;1.38;;
38427;SDS011;24211;49.980;19.776;2024-02-04T04:25:31;5.38;;;1.50;;
38427;SDS011;24211;49.980;19.776;2024-02-04T04:27:59;5.07;;;1.67;;
38427;SDS011;24211;49.980;19.776;2024-02-04T04:30:41;4.65;;;1.73;;
38427;SDS011;24211;49.980;19.776;2024-02-04T04:33:09;3.70;;;1.88;;
38427;SDS011;24211;49.980;19.776;2024-02-04T04:35:38;3.28;;;1.58;;
38427;SDS011;24211;49.980;19.776;2024-02-04T04:38:11;3.55;;;1.45;;
38427;SDS011;24211;49.980;19.776;2024-02-04T04:40:42;2.55;;;1.25;;
38427;SDS011;24211;49.980;19.776;2024-02-04T04:43:19;3.65;;;1.30;;
38427;SDS011;24211;49.980;19.776;2024-02-04T04:45:58;3.03;;;1.30;;
38427;SDS011;24211;49.980;19.776;2024-02-04T04:48:25;2.67;;;1.40;;
38427;SDS011;24211;49.980;19.776;2024-02-04T04:58:20;2.55;;;1.10;;
38427;SDS011;24211;49.980;19.776;2024-02-04T05:00:47;3.15;;;1.10;;
38427;SDS011;24211;49.980;19.776;2024-02-04T05:03:17;3.42;;;1.33;;
38427;SDS011;24211;49.980;19.776;2024-02-04T05:05:45;3.28;;;1.20;;
38427;SDS011;24211;49.980;19.776;2024-02-04T05:08:15;3.40;;;1.20;;
38427;SDS011;24211;49.980;19.776;2024-02-04T05:11:02;2.95;;;1.20;;
38427;SDS011;24211;49.980;19.776;2024-02-04T05:13:30;3.90;;;1.48;;
38427;SDS011;24211;49.980;19.776;2024-02-04T05:16:09;3.15;;;1.40;;
38427;SDS011;24211;49.980;19.776;2024-02-04T05:18:37;4.38;;;1.50;;
38427;SDS011;24211;49.980;19.776;2024-02-04T05:21:04;4.38;;;1.80;;
38427;SDS011;24211;49.980;19.776;2024-02-04T05:23:58;3.85;;;1.60;;
38427;SDS011;24211;49.980;19.776;2024-02-04T05:29:43;3.95;;;1.58;;
38427;SDS011;24211;49.980;19.776;2024-02-04T05:32:11;3.05;;;1.40;;
38427;SDS011;24211;49.980;19.776;2024-02-04T05:34:42;2.67;;;1.38;;
38427;SDS011;24211;49.980;19.776;2024-02-04T05:40:35;3.20;;;1.50;;
38427;SDS011;24211;49.980;19.776;2024-02-04T05:43:06;3.80;;;1.45;;
38427;SDS011;24211;49.980;19.776;2024-02-04T05:45:38;3.25;;;1.38;;
38427;SDS011;24211;49.980;19.776;2024-02-04T05:48:11;4.80;;;1.65;;
38427;SDS011;24211;49.980;19.776;2024-02-04T05:50:40;2.90;;;1.70;;
38427;SDS011;24211;49.980;19.776;2024-02-04T05:53:29;3.67;;;1.60;;
38427;SDS011;24211;49.980;19.776;2024-02-04T05:55:56;3.40;;;1.80;;
38427;SDS011;24211;49.980;19.776;2024-02-04T05:58:32;3.63;;;1.85;;
38427;SDS011;24211;49.980;19.776;2024-02-04T06:00:59;3.72;;;1.90;;
38427;SDS011;24211;49.980;19.776;2024-02-04T06:03:27;4.55;;;1.67;;
38427;SDS011;24211;49.980;19.776;2024-02-04T06:05:58;4.40;;;2.17;;
38427;SDS011;24211;49.980;19.776;2024-02-04T06:08:33;4.72;;;1.90;;
38427;SDS011;24211;49.980;19.776;2024-02-04T06:11:29;4.40;;;1.85;;
38427;SDS011;24211;49.980;19.776;2024-02-04T06:19:54;4.35;;;2.08;;
38427;SDS011;24211;49.980;19.776;2024-02-04T06:22:21;3.88;;;1.90;;
38427;SDS011;24211;49.980;19.776;2024-02-04T06:25:13;4.78;;;2.00;;
38427;SDS011;24211;49.980;19.776;2024-02-04T06:27:41;6.18;;;2.00;;
38427;SDS011;24211;49.980;19.776;2024-02-04T06:30:09;4.47;;;2.20;;
38427;SDS011;24211;49.980;19.776;2024-02-04T06:32:48;4.28;;;2.13;;
38427;SDS011;24211;49.980;19.776;2024-02-04T06:35:57;4.57;;;2.10;;
38427;SDS011;24211;49.980;19.776;2024-02-04T06:38:24;4.45;;;2.25;;
38427;SDS011;24211;49.980;19.776;2024-02-04T06:40:51;7.95;;;2.97;;
38427;SDS011;24211;49.980;19.776;2024-02-04T06:43:18;5.70;;;2.40;;
38427;SDS011;24211;49.980;19.776;2024-02-04T06:45:50;4.53;;;2.17;;
38427;SDS011;24211;49.980;19.776;2024-02-04T06:48:21;4.40;;;2.23;;
38427;SDS011;24211;49.980;19.776;2024-02-04T06:50:49;4.40;;;1.75;;
38427;SDS011;24211;49.980;19.776;2024-02-04T06:53:21;4.88;;;1.88;;
38427;SDS011;24211;49.980;19.776;2024-02-04T06:55:48;3.88;;;1.60;;
38427;SDS011;24211;49.980;19.776;2024-02-04T06:58:15;3.35;;;1.65;;
38427;SDS011;24211;49.980;19.776;2024-02-04T07:00:42;4.85;;;1.75;;
38427;SDS011;24211;49.980;19.776;2024-02-04T07:03:13;2.53;;;1.30;;
38427;SDS011;24211;49.980;19.776;2024-02-04T07:06:06;3.10;;;1.42;;
38427;SDS011;24211;49.980;19.776;2024-02-04T07:14:20;4.10;;;1.60;;
38427;SDS011;24211;49.980;19.776;2024-02-04T07:16:49;4.07;;;1.70;;
38427;SDS011;24211;49.980;19.776;2024-02-04T07:19:18;4.05;;;1.80;;
38427;SDS011;24211;49.980;19.776;2024-02-04T07:21:46;5.80;;;1.90;;
38427;SDS011;24211;49.980;19.776;2024-02-04T07:24:17;6.13;;;2.05;;
38427;SDS011;24211;49.980;19.776;2024-02-04T07:26:45;5.40;;;1.73;;
38427;SDS011;24211;49.980;19.776;2024-02-04T07:29:26;4.75;;;1.85;;
38427;SDS011;24211;49.980;19.776;2024-02-04T07:31:54;5.45;;;1.90;;
38427;SDS011;24211;49.980;19.776;2024-02-04T07:34:27;5.00;;;1.60;;
38427;SDS011;24211;49.980;19.776;2024-02-04T07:36:54;3.92;;;1.52;;
38427;SDS011;24211;49.980;19.776;2024-02-04T07:40:26;3.85;;;1.17;;
38427;SDS011;24211;49.980;19.776;2024-02-04T07:43:20;5.60;;;1.33;;
38427;SDS011;24211;49.980;19.776;2024-02-04T07:45:55;4.88;;;1.52;;
38427;SDS011;24211;49.980;19.776;2024-02-04T07:48:23;2.90;;;1.23;;
38427;SDS011;24211;49.980;19.776;2024-02-04T07:50:50;4.63;;;1.50;;
38427;SDS011;24211;49.980;19.776;2024-02-04T07:56:12;5.60;;;1.30;;
38427;SDS011;24211;49.980;19.776;2024-02-04T07:58:42;3.15;;;1.30;;
38427;SDS011;24211;49.980;19.776;2024-02-04T08:01:15;2.70;;;1.10;;
38427;SDS011;24211;49.980;19.776;2024-02-04T08:03:45;3.53;;;1.55;;
38427;SDS011;24211;49.980;19.776;2024-02-04T08:09:18;5.05;;;1.50;;
38427;SDS011;24211;49.980;19.776;2024-02-04T08:11:45;4.97;;;1.70;;
38427;SDS011;24211;49.980;19.776;2024-02-04T08:17:49;2.90;;;1.40;;
38427;SDS011;24211;49.980;19.776;2024-02-04T08:20:44;3.70;;;1.58;;
38427;SDS011;24211;49.980;19.776;2024-02-04T08:23:11;3.47;;;1.55;;
38427;SDS011;24211;49.980;19.776;2024-02-04T08:25:38;6.25;;;1.90;;
38427;SDS011;24211;49.980;19.776;2024-02-04T08:31:00;4.97;;;1.60;;
38427;SDS011;24211;49.980;19.776;2024-02-04T08:33:33;5.50;;;1.70;;
38427;SDS011;24211;49.980;19.776;2024-02-04T08:36:03;4.65;;;1.75;;
38427;SDS011;24211;49.980;19.776;2024-02-04T08:38:33;5.38;;;1.95;;
38427;SDS011;24211;49.980;19.776;2024-02-04T08:41:02;5.47;;;1.50;;
38427;SDS011;24211;49.980;19.776;2024-02-04T08:43:43;5.78;;;1.60;;
38427;SDS011;24211;49.980;19.776;2024-02-04T08:46:19;4.63;;;1.77;;
38427;SDS011;24211;49.980;19.776;2024-02-04T08:48:47;4.55;;;1.70;;
38427;SDS011;24211;49.980;19.776;2024-02-04T08:51:38;5.28;;;1.70;;
38427;SDS011;24211;49.980;19.776;2024-02-04T08:54:06;5.60;;;1.90;;
38427;SDS011;24211;49.980;19.776;2024-02-04T08:56:33;4.20;;;1.75;;
38427;SDS011;24211;49.980;19.776;2024-02-04T08:59:00;8.50;;;1.90;;
38427;SDS011;24211;49.980;19.776;2024-02-04T09:01:28;5.07;;;1.60;;
38427;SDS011;24211;49.980;19.776;2024-02-04T09:03:56;3.95;;;1.70;;
38427;SDS011;24211;49.980;19.776;2024-02-04T09:09:47;5.97;;;1.70;;
38427;SDS011;24211;49.980;19.776;2024-02-04T09:12:21;6.05;;;1.80;;
38427;SDS011;24211;49.980;19.776;2024-02-04T09:14:48;5.75;;;1.90;;
38427;SDS011;24211;49.980;19.776;2024-02-04T09:17:17;4.63;;;1.85;;
38427;SDS011;24211;49.980;19.776;2024-02-04T09:19:48;8.90;;;2.17;;
38427;SDS011;24211;49.980;19.776;2024-02-04T09:22:25;7.63;;;2.30;;
38427;SDS011;24211;49.980;19.776;2024-02-04T09:24:55;6.88;;;2.50;;
38427;SDS011;24211;49.980;19.776;2024-02-04T09:27:23;7.78;;;2.60;;
38427;SDS011;24211;49.980;19.776;2024-02-04T09:29:52;7.82;;;2.28;;
38427;SDS011;24211;49.980;19.776;2024-02-04T09:32:27;7.03;;;2.50;;
38427;SDS011;24211;49.980;19.776;2024-02-04T09:34:58;6.47;;;2.20;;
38427;SDS011;24211;49.980;19.776;2024-02-04T09:37:29;6.00;;;2.33;;
38427;SDS011;24211;49.980;19.776;2024-02-04T09:39:56;8.35;;;2.30;;
38427;SDS011;24211;49.980;19.776;2024-02-04T09:42:24;6.28;;;2.70;;
38427;SDS011;24211;49.980;19.776;2024-02-04T09:48:10;12.95;;;3.83;;
38427;SDS011;24211;49.980;19.776;2024-02-04T09:50:38;13.43;;;4.65;;
38427;SDS011;24211;49.980;19.776;2024-02-04T09:53:06;13.82;;;5.28;;
38427;SDS011;24211;49.980;19.776;2024-02-04T09:55:37;16.08;;;5.75;;
38427;SDS011;24211;49.980;19.776;2024-02-04T09:58:07;18.50;;;6.05;;
38427;SDS011;24211;49.980;19.776;2024-02-04T10:00:34;14.23;;;4.90;;
38427;SDS011;24211;49.980;19.776;2024-02-04T10:03:05;9.45;;;3.70;;
38427;SDS011;24211;49.980;19.776;2024-02-04T10:05:35;9.43;;;3.20;;
38427;SDS011;24211;49.980;19.776;2024-02-04T10:08:17;8.73;;;3.42;;
38427;SDS011;24211;49.980;19.776;2024-02-04T10:11:15;8.15;;;2.88;;
38427;SDS011;24211;49.980;19.776;2024-02-04T10:13:56;6.97;;;3.03;;
38427;SDS011;24211;49.980;19.776;2024-02-04T10:16:24;7.25;;;2.65;;
38427;SDS011;24211;49.980;19.776;2024-02-04T10:19:06;5.07;;;2.30;;
38427;SDS011;24211;49.980;19.776;2024-02-04T10:28:32;6.57;;;2.53;;
38427;SDS011;24211;49.980;19.776;2024-02-04T10:30:59;7.25;;;2.85;;
38427;SDS011;24211;49.980;19.776;2024-02-04T10:33:31;6.70;;;2.67;;
38427;SDS011;24211;49.980;19.776;2024-02-04T10:35:59;8.48;;;3.03;;
38427;SDS011;24211;49.980;19.776;2024-02-04T10:38:27;7.15;;;3.00;;
38427;SDS011;24211;49.980;19.776;2024-02-04T10:40:54;8.20;;;3.25;;
38427;SDS011;24211;49.980;19.776;2024-02-04T10:43:22;8.27;;;3.35;;
38427;SDS011;24211;49.980;19.776;2024-02-04T10:45:58;8.15;;;3.53;;
38427;SDS011;24211;49.980;19.776;2024-02-04T10:52:24;7.97;;;3.78;;
38427;SDS011;24211;49.980;19.776;2024-02-04T10:57:22;8.63;;;3.80;;
38427;SDS011;24211;49.980;19.776;2024-02-04T11:03:08;7.53;;;3.72;;
38427;SDS011;24211;49.980;19.776;2024-02-04T11:05:37;11.07;;;4.40;;
38427;SDS011;24211;49.980;19.776;2024-02-04T11:14:17;11.05;;;5.00;;
38427;SDS011;24211;49.980;19.776;2024-02-04T11:27:17;7.68;;;3.80;;
38427;SDS011;24211;49.980;19.776;2024-02-04T11:30:10;6.45;;;3.45;;
38427;SDS011;24211;49.980;19.776;2024-02-04T11:32:39;8.90;;;4.22;;
38427;SDS011;24211;49.980;19.776;2024-02-04T11:35:07;9.05;;;4.05;;
38427;SDS011;24211;49.980;19.776;2024-02-04T11:37:40;7.57;;;3.53;;
38427;SDS011;24211;49.980;19.776;2024-02-04T11:40:38;7.28;;;3.70;;
38427;SDS011;24211;49.980;19.776;2024-02-04T11:43:12;9.55;;;3.80;;
38427;SDS011;24211;49.980;19.776;2024-02-04T11:45:42;12.07;;;4.30;;
38427;SDS011;24211;49.980;19.776;2024-02-04T11:48:10;8.95;;;4.32;;
38427;SDS011;24211;49.980;19.776;2024-02-04T11:50:41;10.38;;;4.32;;
38427;SDS011;24211;49.980;19.776;2024-02-04T11:53:19;8.43;;;4.43;;
38427;SDS011;24211;49.980;19.776;2024-02-04T11:55:48;8.02;;;4.20;;
38427;SDS011;24211;49.980;19.776;2024-02-04T11:58:53;9.95;;;4.68;;
38427;SDS011;24211;49.980;19.776;2024-02-04T12:04:39;9.88;;;4.55;;
38427;SDS011;24211;49.980;19.776;2024-02-04T12:07:07;9.98;;;4.88;;
38427;SDS011;24211;49.980;19.776;2024-02-04T12:10:24;18.55;;;6.95;;
38427;SDS011;24211;49.980;19.776;2024-02-04T12:12:53;15.68;;;6.90;;
38427;SDS011;24211;49.980;19.776;2024-02-04T12:15:30;16.30;;;6.05;;
38427;SDS011;24211;49.980;19.776;2024-02-04T12:18:14;18.17;;;6.88;;
38427;SDS011;24211;49.980;19.776;2024-02-04T12:20:50;15.48;;;6.25;;
38427;SDS011;24211;49.980;19.776;2024-02-04T12:28:45;10.87;;;5.07;;
38427;SDS011;24211;49.980;19.776;2024-02-04T12:31:16;10.18;;;5.28;;
38427;SDS011;24211;49.980;19.776;2024-02-04T12:34:02;8.88;;;4.82;;
38427;SDS011;24211;49.980;19.776;2024-02-04T12:36:58;10.90;;;4.82;;
38427;SDS011;24211;49.980;19.776;2024-02-04T12:42:30;8.75;;;4.18;;
38427;SDS011;24211;49.980;19.776;2024-02-04T12:44:57;9.43;;;4.10;;
38427;SDS011;24211;49.980;19.776;2024-02-04T12:47:41;9.07;;;4.20;;
38427;SDS011;24211;49.980;19.776;2024-02-04T12:50:11;7.22;;;3.60;;
38427;SDS011;24211;49.980;19.776;2024-02-04T12:52:39;7.25;;;3.47;;
38427;SDS011;24211;49.980;19.776;2024-02-04T12:55:19;6.85;;;3.45;;
38427;SDS011;24211;49.980;19.776;2024-02-04T12:58:02;7.03;;;3.40;;
38427;SDS011;24211;49.980;19.776;2024-02-04T13:00:31;7.22;;;3.42;;
38427;SDS011;24211;49.980;19.776;2024-02-04T13:03:01;7.55;;;3.28;;
38427;SDS011;24211;49.980;19.776;2024-02-04T13:05:36;8.10;;;3.53;;
38427;SDS011;24211;49.980;19.776;2024-02-04T13:08:04;11.52;;;4.57;;
38427;SDS011;24211;49.980;19.776;2024-02-04T13:10:33;17.80;;;7.10;;
38427;SDS011;24211;49.980;19.776;2024-02-04T13:13:03;15.20;;;7.00;;
38427;SDS011;24211;49.980;19.776;2024-02-04T13:18:10;20.70;;;8.57;;
38427;SDS011;24211;49.980;19.776;2024-02-04T13:20:42;18.38;;;7.97;;
38427;SDS011;24211;49.980;19.776;2024-02-04T13:26:58;13.35;;;7.45;;
38427;SDS011;24211;49.980;19.776;2024-02-04T13:29:31;14.10;;;7.25;;
38427;SDS011;24211;49.980;19.776;2024-02-04T13:31:59;12.90;;;6.68;;
38427;SDS011;24211;49.980;19.776;2024-02-04T13:34:26;12.55;;;6.38;;
38427;SDS011;24211;49.980;19.776;2024-02-04T13:36:54;14.50;;;7.15;;
38427;SDS011;24211;49.980;19.776;2024-02-04T13:42:14;27.10;;;10.10;;
38427;SDS011;24211;49.980;19.776;2024-02-04T13:44:51;22.73;;;10.45;;
38427;SDS011;24211;49.980;19.776;2024-02-04T13:47:19;23.60;;;10.27;;
38427;SDS011;24211;49.980;19.776;2024-02-04T13:49:47;16.17;;;7.18;;
38427;SDS011;24211;49.980;19.776;2024-02-04T13:52:17;16.58;;;6.50;;
38427;SDS011;24211;49.980;19.776;2024-02-04T13:54:47;12.50;;;5.47;;
38427;SDS011;24211;49.980;19.776;2024-02-04T13:57:25;12.15;;;5.40;;
38427;SDS011;24211;49.980;19.776;2024-02-04T13:59:54;10.35;;;5.60;;
38427;SDS011;24211;49.980;19.776;2024-02-04T14:02:23;11.95;;;4.60;;
38427;SDS011;24211;49.980;19.776;2024-02-04T14:05:14;6.57;;;3.35;;
38427;SDS011;24211;49.980;19.776;2024-02-04T14:07:43;7.50;;;3.42;;
38427;SDS011;24211;49.980;19.776;2024-02-04T14:10:11;6.78;;;3.00;;
38427;SDS011;24211;49.980;19.776;2024-02-04T14:12:41;6.25;;;2.60;;
38427;SDS011;24211;49.980;19.776;2024-02-04T14:15:12;6.13;;;2.88;;
38427;SDS011;24211;49.980;19.776;2024-02-04T14:17:42;5.28;;;2.40;;
38427;SDS011;24211;49.980;19.776;2024-02-04T14:20:12;5.45;;;2.65;;
38427;SDS011;24211;49.980;19.776;2024-02-04T14:22:40;4.35;;;2.17;;
38427;SDS011;24211;49.980;19.776;2024-02-04T14:25:09;6.55;;;2.30;;
38427;SDS011;24211;49.980;19.776;2024-02-04T14:28:28;4.82;;;2.35;;
38427;SDS011;24211;49.980;19.776;2024-02-04T14:30:55;5.07;;;2.25;;
38427;SDS011;24211;49.980;19.776;2024-02-04T14:37:20;6.28;;;3.13;;
38427;SDS011;24211;49.980;19.776;2024-02-04T14:39:47;5.85;;;2.95;;
38427;SDS011;24211;49.980;19.776;2024-02-04T14:42:17;5.75;;;2.55;;
38427;SDS011;24211;49.980;19.776;2024-02-04T14:44:45;5.97;;;2.58;;
38427;SDS011;24211;49.980;19.776;2024-02-04T14:47:13;5.95;;;2.20;;
38427;SDS011;24211;49.980;19.776;2024-02-04T14:49:40;4.72;;;2.15;;
38427;SDS011;24211;49.980;19.776;2024-02-04T14:52:07;5.18;;;2.00;;
38427;SDS011;24211;49.980;19.776;2024-02-04T14:54:36;5.07;;;2.67;;
38427;SDS011;24211;49.980;19.776;2024-02-04T14:57:08;4.47;;;2.10;;
38427;SDS011;24211;49.980;19.776;2024-02-04T14:59:35;5.45;;;2.63;;
38427;SDS011;24211;49.980;19.776;2024-02-04T15:05:12;5.43;;;2.50;;
38427;SDS011;24211;49.980;19.776;2024-02-04T15:07:39;6.57;;;2.60;;
38427;SDS011;24211;49.980;19.776;2024-02-04T15:11:23;6.80;;;2.60;;
38427;SDS011;24211;49.980;19.776;2024-02-04T15:14:39;5.68;;;2.50;;
38427;SDS011;24211;49.980;19.776;2024-02-04T15:17:07;4.97;;;2.63;;
38427;SDS011;24211;49.980;19.776;2024-02-04T15:19:36;5.82;;;2.90;;
38427;SDS011;24211;49.980;19.776;2024-02-04T15:22:17;6.93;;;2.85;;
38427;SDS011;24211;49.980;19.776;2024-02-04T15:25:06;6.25;;;2.92;;
38427;SDS011;24211;49.980;19.776;2024-02-04T15:27:38;7.07;;;3.42;;
38427;SDS011;24211;49.980;19.776;2024-02-04T15:30:06;6.13;;;3.13;;
38427;SDS011;24211;49.980;19.776;2024-02-04T15:32:36;7.60;;;3.60;;
38427;SDS011;24211;49.980;19.776;2024-02-04T15:35:24;6.10;;;3.30;;
38427;SDS011;24211;49.980;19.776;2024-02-04T15:37:57;7.47;;;3.53;;
38427;SDS011;24211;49.980;19.776;2024-02-04T15:40:51;7.80;;;3.63;;
38427;SDS011;24211;49.980;19.776;2024-02-04T15:43:45;7.32;;;3.20;;
38427;SDS011;24211;49.980;19.776;2024-02-04T15:46:18;8.02;;;3.60;;
38427;SDS011;24211;49.980;19.776;2024-02-04T15:49:12;8.63;;;3.78;;
38427;SDS011;24211;49.980;19.776;2024-02-04T15:51:51;8.05;;;3.40;;
38427;SDS011;24211;49.980;19.776;2024-02-04T15:55:12;6.70;;;3.03;;
38427;SDS011;24211;49.980;19.776;2024-02-04T15:57:52;7.97;;;3.13;;
38427;SDS011;24211;49.980;19.776;2024-02-04T16:00:20;6.47;;;2.63;;
38427;SDS011;24211;49.980;19.776;2024-02-04T16:02:55;7.65;;;2.85;;
38427;SDS011;24211;49.980;19.776;2024-02-04T16:08:27;6.47;;;3.15;;
38427;SDS011;24211;49.980;19.776;2024-02-04T16:10:54;6.53;;;3.30;;
38427;SDS011;24211;49.980;19.776;2024-02-04T16:13:29;7.57;;;3.50;;
38427;SDS011;24211;49.980;19.776;2024-02-04T16:16:20;8.02;;;3.40;;
38427;SDS011;24211;49.980;19.776;2024-02-04T16:19:02;7.93;;;3.60;;
38427;SDS011;24211;49.980;19.776;2024-02-04T16:21:32;6.90;;;3.00;;
38427;SDS011;24211;49.980;19.776;2024-02-04T16:24:01;6.88;;;3.20;;
38427;SDS011;24211;49.980;19.776;2024-02-04T16:26:38;7.32;;;3.40;;
38427;SDS011;24211;49.980;19.776;2024-02-04T16:29:05;7.28;;;2.83;;
38427;SDS011;24211;49.980;19.776;2024-02-04T16:34:27;7.32;;;3.33;;
38427;SDS011;24211;49.980;19.776;2024-02-04T16:37:06;6.28;;;2.75;;
38427;SDS011;24211;49.980;19.776;2024-02-04T16:39:36;6.13;;;2.80;;
38427;SDS011;24211;49.980;19.776;2024-02-04T16:42:14;6.32;;;3.13;;
38427;SDS011;24211;49.980;19.776;2024-02-04T16:44:45;7.18;;;3.10;;
38427;SDS011;24211;49.980;19.776;2024-02-04T16:47:48;7.68;;;2.67;;
38427;SDS011;24211;49.980;19.776;2024-02-04T16:50:53;6.13;;;2.60;;
38427;SDS011;24211;49.980;19.776;2024-02-04T16:53:20;4.80;;;2.70;;
38427;SDS011;24211;49.980;19.776;2024-02-04T16:55:47;7.13;;;3.00;;
38427;SDS011;24211;49.980;19.776;2024-02-04T16:58:40;7.00;;;2.90;;
38427;SDS011;24211;49.980;19.776;2024-02-04T17:01:08;6.82;;;2.67;;
38427;SDS011;24211;49.980;19.776;2024-02-04T17:03:36;6.80;;;2.85;;
38427;SDS011;24211;49.980;19.776;2024-02-04T17:06:05;6.65;;;2.60;;
38427;SDS011;24211;49.980;19.776;2024-02-04T17:08:35;5.70;;;2.90;;
38427;SDS011;24211;49.980;19.776;2024-02-04T17:11:11;7.47;;;3.10;;
38427;SDS011;24211;49.980;19.776;2024-02-04T17:13:38;6.55;;;3.22;;
38427;SDS011;24211;49.980;19.776;2024-02-04T17:16:09;7.57;;;3.55;;
38427;SDS011;24211;49.980;19.776;2024-02-04T17:22:48;8.63;;;4.35;;
38427;SDS011;24211;49.980;19.776;2024-02-04T17:25:40;8.45;;;4.47;;